Time;durP1;ratioP1;P1;durP2;ratioP2;P2;SDS_P1;SDS_P2;PMS_P1;PMS_P2;Temp;Humidity;BMP_temperature;BMP_pressure;BME280_temperature;BME280_humidity;BME280_pressure;Samples;Min_cycle;Max_cycle;Signal;HPM_P1;HPM_P2
2023/12/22 00:02:12;;;;;;;9.45;3.25;;;;;;;6.24;100.00;100224.47;5108483;28;20044;-59
2023/12/22 00:04:38;;;;;;;13.32;3.25;;;;;;;6.17;100.00;100230.16;5092777;28;20375;-59
2023/12/22 00:07:04;;;;;;;10.73;3.33;;;;;;;6.12;100.00;100210.16;5092815;28;20024;-59
2023/12/22 00:09:29;;;;;;;16.67;4.15;;;;;;;6.15;100.00;100195.94;5109994;28;20430;-59
2023/12/22 00:11:54;;;;;;;16.55;4.57;;;;;;;6.09;100.00;100207.69;5111086;28;20035;-59
2023/12/22 00:14:20;;;;;;;15.10;3.67;;;;;;;6.11;100.00;100200.53;5110690;28;20023;-58
2023/12/22 00:16:45;;;;;;;10.32;3.28;;;;;;;6.12;100.00;100189.03;5093883;28;20467;-58
2023/12/22 00:19:10;;;;;;;15.32;3.53;;;;;;;6.17;100.00;100190.56;5110977;28;20066;-58
2023/12/22 00:21:36;;;;;;;20.92;4.28;;;;;;;6.22;100.00;100218.41;5092805;28;20080;-58
2023/12/22 00:24:04;;;;;;;9.82;3.78;;;;;;;6.29;100.00;100232.13;5110269;28;20067;-58
2023/12/22 00:26:29;;;;;;;11.35;3.30;;;;;;;6.29;100.00;100232.97;5108602;28;20794;-58
2023/12/22 00:28:55;;;;;;;11.02;3.45;;;;;;;6.28;100.00;100230.44;5093053;28;20389;-58
2023/12/22 00:31:20;;;;;;;8.05;3.15;;;;;;;6.26;100.00;100243.72;5110920;28;20028;-58
2023/12/22 00:33:48;;;;;;;11.55;2.90;;;;;;;6.20;100.00;100217.66;5092216;28;20549;-59
2023/12/22 00:36:15;;;;;;;7.88;3.40;;;;;;;6.26;100.00;100246.34;5116280;27;20478;-59
2023/12/22 00:38:41;;;;;;;12.52;3.47;;;;;;;6.25;100.00;100257.00;5115081;27;20114;-58
2023/12/22 00:41:09;;;;;;;15.63;3.38;;;;;;;6.20;100.00;100251.97;5117837;27;20115;-58
2023/12/22 00:43:35;;;;;;;13.48;3.58;;;;;;;6.29;100.00;100251.47;5114997;27;20074;-58
2023/12/22 00:46:00;;;;;;;13.45;3.63;;;;;;;6.29;100.00;100256.75;5113572;27;20047;-58
2023/12/22 00:48:26;;;;;;;13.77;2.92;;;;;;;6.29;100.00;100251.47;5114621;27;20034;-58
2023/12/22 00:50:51;;;;;;;14.25;3.53;;;;;;;6.30;100.00;100255.81;5096251;28;20028;-58
2023/12/22 00:53:17;;;;;;;8.18;3.60;;;;;;;6.32;100.00;100253.97;5097296;27;20035;-58
2023/12/22 00:55:42;;;;;;;11.27;3.33;;;;;;;6.34;100.00;100256.50;5114686;27;20023;-58
2023/12/22 00:58:07;;;;;;;10.10;2.97;;;;;;;6.27;100.00;100250.72;5113557;28;20054;-58
2023/12/22 01:00:33;;;;;;;13.05;4.10;;;;;;;6.32;100.00;100261.88;5114449;27;20065;-58
2023/12/22 01:02:58;;;;;;;11.70;3.70;;;;;;;6.31;100.00;100249.59;5114238;27;20395;-58
2023/12/22 01:05:23;;;;;;;12.90;4.70;;;;;;;6.28;100.00;100248.91;5114166;28;20027;-58
2023/12/22 01:07:49;;;;;;;9.25;3.33;;;;;;;6.29;100.00;100255.91;5095627;28;20390;-58
2023/12/22 01:10:17;;;;;;;8.98;3.60;;;;;;;6.29;100.00;100262.03;5096488;28;20022;-58
2023/12/22 01:12:42;;;;;;;14.98;4.13;;;;;;;6.32;100.00;100258.38;5095629;28;20023;-58
2023/12/22 01:15:08;;;;;;;18.40;3.92;;;;;;;6.38;100.00;100250.09;5095858;28;20037;-58
2023/12/22 01:17:33;;;;;;;10.80;3.58;;;;;;;6.41;100.00;100263.13;5117959;27;20466;-58
2023/12/22 01:19:59;;;;;;;14.45;3.40;;;;;;;6.44;100.00;100259.47;5117010;27;20035;-58
2023/12/22 01:22:24;;;;;;;16.83;3.80;;;;;;;6.47;100.00;100246.09;5113871;28;20465;-58
2023/12/22 01:24:49;;;;;;;16.58;3.88;;;;;;;6.49;99.97;100262.72;5097354;28;20027;-58
2023/12/22 01:27:15;;;;;;;19.60;4.07;;;;;;;6.44;99.99;100257.72;5099125;28;20435;-58
2023/12/22 01:29:40;;;;;;;22.33;4.38;;;;;;;6.51;100.00;100282.00;5114987;27;20019;-59
2023/12/22 01:32:06;;;;;;;19.38;4.80;;;;;;;6.52;99.84;100281.91;5095556;28;20034;-58
2023/12/22 01:34:33;;;;;;;11.70;3.63;;;;;;;6.46;100.00;100273.47;5115074;27;20449;-58
2023/12/22 01:36:59;;;;;;;11.48;3.58;;;;;;;6.52;99.19;100281.91;5114859;27;20530;-58
2023/12/22 01:39:24;;;;;;;15.50;3.58;;;;;;;6.47;98.77;100277.78;5114131;27;20084;-58
2023/12/22 01:41:50;;;;;;;7.95;3.30;;;;;;;6.41;98.03;100281.63;5114947;27;20070;-58
2023/12/22 01:44:15;;;;;;;15.45;4.95;;;;;;;6.44;97.31;100285.91;5115461;27;20027;-58
2023/12/22 01:46:43;;;;;;;10.70;3.53;;;;;;;6.41;97.36;100268.41;5097137;28;20121;-58
2023/12/22 01:49:09;;;;;;;17.65;3.70;;;;;;;6.49;95.60;100290.00;5097503;28;20106;-58
2023/12/22 01:51:39;;;;;;;17.33;4.95;;;;;;;6.46;95.32;100278.75;5097344;28;20058;-58
2023/12/22 01:54:06;;;;;;;17.17;4.63;;;;;;;6.53;93.79;100285.38;5114538;27;20042;-58
2023/12/22 01:56:31;;;;;;;22.70;5.32;;;;;;;6.54;93.85;100295.03;5095058;28;20031;-58
2023/12/22 01:59:00;;;;;;;14.23;3.90;;;;;;;6.53;94.01;100302.13;5094501;28;20031;-58
2023/12/22 02:01:29;;;;;;;16.80;3.65;;;;;;;6.53;92.84;100311.81;5097433;27;20022;-58
2023/12/22 02:03:58;;;;;;;18.88;3.70;;;;;;;6.56;93.28;100301.09;5112982;28;20026;-58
2023/12/22 02:06:24;;;;;;;11.27;4.13;;;;;;;6.64;93.35;100316.50;5094614;28;20035;-58
2023/12/22 02:08:50;;;;;;;13.43;3.40;;;;;;;6.64;93.95;100317.34;5112601;27;20046;-58
2023/12/22 02:11:17;;;;;;;14.38;3.65;;;;;;;6.64;93.96;100312.06;5114601;27;20446;-58
2023/12/22 02:13:43;;;;;;;16.30;3.55;;;;;;;6.65;94.00;100303.22;5097893;28;20381;-58
2023/12/22 02:16:26;;;;;;;18.35;5.05;;;;;;;6.66;93.27;100307.56;5094715;28;20031;-58
2023/12/22 02:18:55;;;;;;;20.42;3.78;;;;;;;6.67;92.38;100277.53;5112804;28;20630;-59
2023/12/22 02:21:20;;;;;;;17.13;3.97;;;;;;;6.63;91.65;100285.75;5112548;28;20031;-58
2023/12/22 02:23:47;;;;;;;21.90;4.15;;;;;;;6.63;90.15;100280.47;5093777;28;20027;-58
2023/12/22 02:26:21;;;;;;;18.05;4.43;;;;;;;6.67;89.88;100287.25;5094301;28;20031;-59
2023/12/22 02:28:48;;;;;;;15.68;4.18;;;;;;;6.68;90.16;100296.91;5098862;28;20019;-58
2023/12/22 02:31:18;;;;;;;11.55;3.72;;;;;;;6.69;89.29;100302.09;5095321;28;20023;-58
2023/12/22 02:33:44;;;;;;;16.05;4.22;;;;;;;6.71;87.24;100315.25;5113804;27;20046;-58
2023/12/22 02:36:12;;;;;;;15.65;3.97;;;;;;;6.69;87.54;100306.53;5113670;27;20092;-58
2023/12/22 02:38:39;;;;;;;18.90;3.80;;;;;;;6.68;88.38;100334.75;5094780;28;20122;-58
2023/12/22 02:41:07;;;;;;;17.58;3.80;;;;;;;6.67;90.51;100348.03;5093706;27;20031;-59
2023/12/22 02:43:33;;;;;;;12.27;3.58;;;;;;;6.54;93.04;100345.22;5093793;28;20047;-58
2023/12/22 02:45:58;;;;;;;14.27;3.50;;;;;;;6.41;95.19;100326.53;5095624;28;20043;-58
2023/12/22 02:48:23;;;;;;;17.92;3.65;;;;;;;6.28;95.33;100322.88;5112007;27;20015;-58
2023/12/22 02:50:49;;;;;;;13.90;4.00;;;;;;;6.28;96.50;100320.22;5095862;27;20114;-58
2023/12/22 02:53:14;;;;;;;12.15;3.78;;;;;;;6.16;97.34;100297.97;5111227;27;20527;-58
2023/12/22 02:55:39;;;;;;;17.70;4.95;;;;;;;6.17;98.05;100309.38;5113248;27;20023;-58
2023/12/22 02:58:07;;;;;;;15.50;3.70;;;;;;;6.12;97.61;100313.13;5093617;28;20446;-58
2023/12/22 03:00:32;;;;;;;13.68;3.78;;;;;;;6.07;97.41;100304.59;5097000;27;20043;-58
2023/12/22 03:02:58;;;;;;;12.75;3.92;;;;;;;6.05;98.62;100298.53;5113856;27;20051;-58
2023/12/22 03:05:23;;;;;;;15.93;3.67;;;;;;;6.10;98.39;100298.28;5099650;28;20034;-58
2023/12/22 03:07:48;;;;;;;8.82;3.30;;;;;;;6.03;99.14;100288.97;5111853;28;20458;-58
2023/12/22 03:10:14;;;;;;;12.23;3.72;;;;;;;6.02;99.22;100285.50;5111409;28;20028;-58
2023/12/22 03:12:39;;;;;;;16.30;4.25;;;;;;;6.04;99.72;100296.00;5093869;28;20024;-58
2023/12/22 03:15:05;;;;;;;15.15;3.60;;;;;;;6.05;100.00;100282.69;5113104;27;20477;-58
2023/12/22 03:17:31;;;;;;;21.02;4.20;;;;;;;6.02;100.00;100282.84;5116941;27;20106;-58
2023/12/22 03:19:58;;;;;;;14.10;4.28;;;;;;;6.06;100.00;100279.13;5096340;28;20110;-58
2023/12/22 03:22:23;;;;;;;15.00;3.92;;;;;;;6.17;100.00;100283.81;5111395;27;20422;-58
2023/12/22 03:24:49;;;;;;;18.67;3.78;;;;;;;6.11;100.00;100281.50;5092612;28;20062;-59
2023/12/22 03:27:16;;;;;;;13.95;3.72;;;;;;;6.12;100.00;100275.31;5094005;28;20053;-58
2023/12/22 03:29:42;;;;;;;15.68;3.67;;;;;;;6.07;100.00;100270.28;5111647;28;20023;-58
2023/12/22 03:32:08;;;;;;;19.33;4.05;;;;;;;6.11;100.00;100277.06;5095449;28;20068;-58
2023/12/22 03:34:33;;;;;;;18.45;4.30;;;;;;;6.11;100.00;100279.72;5112928;27;20031;-58
2023/12/22 03:36:59;;;;;;;12.52;3.42;;;;;;;6.07;100.00;100266.78;5094850;28;20051;-58
2023/12/22 03:39:26;;;;;;;16.65;4.53;;;;;;;6.14;100.00;100278.69;5094341;28;20043;-58
2023/12/22 03:41:52;;;;;;;20.60;4.32;;;;;;;6.16;100.00;100279.50;5093094;28;20024;-58
2023/12/22 03:44:17;;;;;;;14.93;3.80;;;;;;;6.17;100.00;100261.84;5111941;27;20060;-58
2023/12/22 03:46:45;;;;;;;15.82;4.45;;;;;;;6.20;100.00;100259.03;5094831;28;20023;-58
2023/12/22 03:49:10;;;;;;;15.02;3.75;;;;;;;6.31;100.00;100273.38;5111152;28;20020;-58
2023/12/22 03:51:37;;;;;;;10.13;4.40;;;;;;;6.29;100.00;100269.09;5111471;28;20030;-58
2023/12/22 03:54:03;;;;;;;11.50;3.33;;;;;;;6.36;100.00;100275.78;5094661;27;20038;-58
2023/12/22 03:56:28;;;;;;;19.50;4.20;;;;;;;6.39;100.00;100272.97;5112708;28;20035;-58
2023/12/22 03:58:53;;;;;;;16.67;4.00;;;;;;;6.50;100.00;100275.88;5092885;28;20036;-58
2023/12/22 04:01:21;;;;;;;11.02;3.35;;;;;;;6.49;100.00;100278.56;5092634;28;20051;-58
2023/12/22 04:03:46;;;;;;;12.65;3.65;;;;;;;6.59;100.00;100291.19;5092957;28;20075;-58
2023/12/22 04:06:12;;;;;;;11.68;3.35;;;;;;;6.54;100.00;100300.31;5092768;28;20107;-58
2023/12/22 04:08:37;;;;;;;16.98;3.58;;;;;;;6.60;100.00;100302.63;5110684;28;20024;-58
2023/12/22 04:11:02;;;;;;;12.02;3.20;;;;;;;6.64;100.00;100296.22;5114998;28;20095;-58
2023/12/22 04:13:28;;;;;;;10.85;3.97;;;;;;;6.67;100.00;100305.75;5096777;28;20539;-58
2023/12/22 04:15:53;;;;;;;13.23;3.72;;;;;;;6.69;100.00;100309.19;5096959;28;20028;-58
2023/12/22 04:18:19;;;;;;;13.20;3.83;;;;;;;6.68;100.00;100303.06;5115406;27;20023;-58
2023/12/22 04:20:44;;;;;;;11.80;3.25;;;;;;;6.75;100.00;100319.41;5099204;27;20466;-58
2023/12/22 04:23:09;;;;;;;18.48;3.72;;;;;;;6.77;99.71;100309.63;5098298;28;20024;-58
2023/12/22 04:25:35;;;;;;;13.10;3.45;;;;;;;6.81;100.00;100311.13;5117358;27;20077;-58
2023/12/22 04:28:00;;;;;;;21.58;4.05;;;;;;;6.81;99.26;100319.91;5116266;27;20028;-58
2023/12/22 04:30:28;;;;;;;11.98;3.53;;;;;;;6.83;98.20;100333.91;5114623;28;20035;-58
2023/12/22 04:32:53;;;;;;;14.88;3.20;;;;;;;6.80;98.61;100326.16;5114846;28;20031;-58
2023/12/22 04:35:19;;;;;;;9.57;3.60;;;;;;;6.88;96.83;100330.97;5114827;28;20031;-58
2023/12/22 04:37:44;;;;;;;11.07;3.78;;;;;;;6.87;96.49;100331.94;5117916;27;20053;-58
2023/12/22 04:40:10;;;;;;;13.43;4.13;;;;;;;6.93;96.12;100336.88;5098671;28;20054;-58
2023/12/22 04:42:35;;;;;;;11.05;3.40;;;;;;;6.94;94.81;100338.59;5098865;27;20470;-58
2023/12/22 04:45:01;;;;;;;17.90;3.45;;;;;;;6.95;95.48;100340.28;5114753;28;20031;-58
2023/12/22 04:47:26;;;;;;;12.68;3.67;;;;;;;6.95;93.68;100339.44;5118186;27;20419;-58
2023/12/22 04:49:52;;;;;;;9.75;3.38;;;;;;;6.94;94.42;100335.06;5097752;27;20543;-58
2023/12/22 04:52:17;;;;;;;16.33;3.20;;;;;;;6.93;94.91;100336.88;5114413;27;20055;-58
2023/12/22 04:54:42;;;;;;;18.08;3.72;;;;;;;6.85;94.46;100317.94;5112185;27;20080;-58
2023/12/22 04:57:08;;;;;;;17.27;4.00;;;;;;;6.95;95.53;100335.00;5114514;28;20043;-58
2023/12/22 04:59:33;;;;;;;10.32;3.50;;;;;;;6.92;96.17;100327.25;5119774;27;20051;-58
2023/12/22 05:01:58;;;;;;;12.10;3.35;;;;;;;6.96;96.84;100339.34;5095720;28;20198;-58
2023/12/22 05:04:24;;;;;;;16.48;3.47;;;;;;;6.99;96.72;100335.69;5097693;28;20019;-58
2023/12/22 05:06:49;;;;;;;14.57;3.67;;;;;;;6.93;96.68;100336.88;5114110;27;20019;-58
2023/12/22 05:09:15;;;;;;;17.20;4.00;;;;;;;6.94;97.22;100338.59;5113504;28;20024;-58
2023/12/22 05:11:41;;;;;;;13.60;3.53;;;;;;;7.01;97.99;100341.75;5097904;27;20126;-58
2023/12/22 05:14:06;;;;;;;16.33;4.22;;;;;;;7.03;98.53;100346.00;5096562;28;20107;-58
2023/12/22 05:16:31;;;;;;;15.15;4.65;;;;;;;7.04;100.00;100344.22;5114048;28;20020;-58
2023/12/22 05:18:58;;;;;;;17.50;4.07;;;;;;;7.06;100.00;100331.75;5115237;27;20390;-59
2023/12/22 05:21:23;;;;;;;16.60;3.83;;;;;;;7.09;100.00;100310.44;5078642;28;20020;-58
2023/12/22 05:23:50;;;;;;;13.30;4.68;;;;;;;7.08;100.00;100343.09;5113445;27;20119;-58
2023/12/22 05:26:20;;;;;;;20.83;4.72;;;;;;;7.04;100.00;100333.63;5114503;27;20042;-58
2023/12/22 05:28:45;;;;;;;16.85;4.75;;;;;;;7.07;100.00;100344.03;5114490;27;20385;-58
2023/12/22 05:31:11;;;;;;;19.48;4.20;;;;;;;7.13;100.00;100345.47;5095474;28;20024;-58
2023/12/22 05:33:36;;;;;;;22.02;5.45;;;;;;;7.10;100.00;100341.22;5095608;28;20020;-58
2023/12/22 05:36:03;;;;;;;14.07;4.07;;;;;;;7.18;100.00;100344.28;5095506;28;20447;-58
2023/12/22 05:38:28;;;;;;;23.00;5.90;;;;;;;7.20;100.00;100323.03;5112749;27;20054;-58
2023/12/22 05:40:55;;;;;;;17.85;4.15;;;;;;;7.18;100.00;100338.16;5114429;27;20043;-59
2023/12/22 05:43:20;;;;;;;14.05;3.95;;;;;;;7.20;100.00;100341.53;5113143;28;20107;-58
2023/12/22 05:45:45;;;;;;;22.75;4.50;;;;;;;7.14;100.00;100321.56;5095107;28;20023;-58
2023/12/22 05:48:11;;;;;;;22.10;4.65;;;;;;;7.11;100.00;100323.56;5113069;28;20027;-58
2023/12/22 05:50:36;;;;;;;19.75;5.03;;;;;;;7.10;100.00;100333.28;5113773;28;20043;-58
2023/12/22 05:53:04;;;;;;;22.80;4.68;;;;;;;7.04;100.00;100333.63;5112949;28;20531;-59
2023/12/22 05:55:29;;;;;;;26.60;6.22;;;;;;;7.08;100.00;100347.53;5095099;28;20024;-58
2023/12/22 05:57:55;;;;;;;19.15;4.88;;;;;;;7.03;100.00;100335.44;5094633;28;20543;-58
2023/12/22 06:00:21;;;;;;;23.85;5.68;;;;;;;7.01;100.00;100334.66;5094984;28;20023;-58
2023/12/22 06:02:46;;;;;;;23.67;5.35;;;;;;;7.09;100.00;100334.22;5113430;27;20024;-58
2023/12/22 06:05:12;;;;;;;36.35;5.97;;;;;;;7.04;100.00;100323.06;5112857;27;20019;-58
2023/12/22 06:07:37;;;;;;;20.13;4.88;;;;;;;7.04;100.00;100331.00;5096254;28;20490;-58
2023/12/22 06:10:03;;;;;;;14.57;5.60;;;;;;;7.01;100.00;100318.78;5116747;27;20035;-58
2023/12/22 06:12:28;;;;;;;31.05;7.38;;;;;;;7.03;100.00;100329.28;5094418;28;20026;-58
2023/12/22 06:14:53;;;;;;;24.17;5.03;;;;;;;7.07;100.00;100322.88;5094524;28;20493;-58
2023/12/22 06:17:21;;;;;;;24.08;5.35;;;;;;;7.09;100.00;100322.78;5095238;28;20030;-58
2023/12/22 06:19:46;;;;;;;30.08;5.53;;;;;;;7.05;100.00;100303.59;5112608;27;20478;-58
2023/12/22 06:22:14;;;;;;;27.83;4.97;;;;;;;7.09;100.00;100315.72;5094391;28;20027;-58
2023/12/22 06:24:40;;;;;;;20.05;5.32;;;;;;;7.15;100.00;100323.31;5115100;27;20066;-58
2023/12/22 06:27:06;;;;;;;28.58;6.43;;;;;;;7.17;100.00;100313.47;5096465;27;20120;-58
2023/12/22 06:29:34;;;;;;;25.38;5.32;;;;;;;7.20;100.00;100312.44;5095701;28;20397;-58
2023/12/22 06:31:59;;;;;;;24.85;6.50;;;;;;;7.20;100.00;100320.38;5096137;27;20033;-58
2023/12/22 06:34:25;;;;;;;27.05;4.88;;;;;;;7.20;100.00;100325.66;5112759;27;20106;-58
2023/12/22 06:36:51;;;;;;;25.65;5.00;;;;;;;7.22;100.00;100319.34;5096760;28;20385;-58
2023/12/22 06:39:16;;;;;;;22.20;5.13;;;;;;;7.26;100.00;100325.31;5111650;28;20052;-58
2023/12/22 06:41:41;;;;;;;22.23;5.65;;;;;;;7.25;100.00;100340.34;5093423;27;20023;-58
2023/12/22 06:44:07;;;;;;;28.95;6.38;;;;;;;7.28;100.00;100347.25;5094022;28;20118;-58
2023/12/22 06:46:33;;;;;;;25.33;7.07;;;;;;;7.23;100.00;100336.91;5112904;27;20032;-58
2023/12/22 06:49:01;;;;;;;20.83;4.93;;;;;;;7.32;100.00;100345.25;5094632;27;20024;-58
2023/12/22 06:51:33;;;;;;;30.50;6.07;;;;;;;7.39;100.00;100336.06;5093925;28;20023;-58
2023/12/22 06:54:01;;;;;;;30.38;5.53;;;;;;;7.38;100.00;100350.19;5112812;27;20026;-58
2023/12/22 06:56:30;;;;;;;31.15;7.55;;;;;;;7.39;100.00;100334.25;5094104;28;20101;-58
2023/12/22 06:58:57;;;;;;;30.20;6.40;;;;;;;7.41;100.00;100337.66;5111719;28;20115;-58
2023/12/22 07:01:31;;;;;;;35.60;6.57;;;;;;;7.41;100.00;100324.44;5093462;28;20497;-58
2023/12/22 07:03:57;;;;;;;30.27;6.03;;;;;;;7.41;100.00;100334.16;5109250;28;20027;-58
2023/12/22 07:06:26;;;;;;;30.08;7.63;;;;;;;7.45;100.00;100333.91;5114873;27;20027;-58
2023/12/22 07:09:12;;;;;;;31.38;6.70;;;;;;;7.52;100.00;100329.09;5114649;27;20019;-58
2023/12/22 07:11:48;;;;;;;31.73;5.90;;;;;;;7.45;100.00;100327.75;5092586;27;20023;-58
2023/12/22 07:14:13;;;;;;;24.08;5.18;;;;;;;7.51;100.00;100332.69;5111484;28;20032;-59
2023/12/22 07:16:38;;;;;;;29.33;6.25;;;;;;;7.48;100.00;100341.66;5093466;28;20020;-58
2023/12/22 07:19:05;;;;;;;23.08;5.32;;;;;;;7.59;100.00;100334.84;5093114;28;20496;-58
2023/12/22 07:21:30;;;;;;;26.02;5.78;;;;;;;7.49;100.00;100330.13;5112009;28;20028;-58
2023/12/22 07:23:56;;;;;;;30.02;6.15;;;;;;;7.53;100.00;100333.47;5113480;27;20026;-58
2023/12/22 07:26:24;;;;;;;30.88;5.72;;;;;;;7.54;100.00;100332.50;5113082;27;20039;-58
2023/12/22 07:28:49;;;;;;;19.50;5.72;;;;;;;7.51;100.00;100327.41;5109937;28;20008;-58
2023/12/22 07:31:14;;;;;;;36.42;5.30;;;;;;;7.54;100.00;100321.91;5113573;27;20026;-59
2023/12/22 07:33:43;;;;;;;25.52;6.03;;;;;;;7.49;100.00;100313.38;5117566;27;20043;-58
2023/12/22 07:36:09;;;;;;;33.92;6.00;;;;;;;7.56;100.00;100321.81;5119503;27;20037;-58
2023/12/22 07:38:35;;;;;;;27.90;6.40;;;;;;;7.57;100.00;100328.81;5110895;28;20035;-59
2023/12/22 07:41:00;;;;;;;31.75;5.25;;;;;;;7.57;100.00;100319.09;5094153;28;20110;-58
2023/12/22 07:43:26;;;;;;;25.45;6.10;;;;;;;7.59;100.00;100326.91;5111893;27;20542;-58
2023/12/22 07:45:51;;;;;;;31.35;6.35;;;;;;;7.61;100.00;100325.91;5109143;27;20111;-58
2023/12/22 07:48:17;;;;;;;28.23;5.93;;;;;;;7.61;100.00;100315.31;5089593;28;20012;-59
2023/12/22 07:50:44;;;;;;;21.50;5.60;;;;;;;7.67;100.00;100325.53;5111067;28;20503;-59
2023/12/22 07:53:09;;;;;;;20.77;5.50;;;;;;;7.61;100.00;100306.53;5110818;28;20023;-58
2023/12/22 07:55:35;;;;;;;25.15;6.57;;;;;;;7.69;100.00;100321.00;5112167;27;20019;-58
2023/12/22 07:58:01;;;;;;;41.10;6.03;;;;;;;7.63;100.00;100297.56;5094795;28;20363;-59
2023/12/22 08:00:27;;;;;;;28.15;6.35;;;;;;;7.68;100.00;100316.66;5094903;28;20032;-59
2023/12/22 08:02:53;;;;;;;28.45;5.32;;;;;;;7.75;100.00;100319.78;5113564;28;20042;-58
2023/12/22 08:05:18;;;;;;;33.45;5.63;;;;;;;7.76;100.00;100326.78;5092900;28;20497;-59
2023/12/22 08:07:44;;;;;;;19.77;4.63;;;;;;;7.74;100.00;100323.38;5112886;28;20015;-59
2023/12/22 08:10:10;;;;;;;23.50;5.03;;;;;;;7.74;100.00;100332.19;5072858;28;20486;-58
2023/12/22 08:12:35;;;;;;;29.77;5.32;;;;;;;7.80;100.00;100332.75;5114072;28;20092;-59
2023/12/22 08:15:01;;;;;;;17.80;4.40;;;;;;;7.78;100.00;100324.91;5112224;28;20434;-58
2023/12/22 08:17:26;;;;;;;24.92;5.78;;;;;;;7.83;100.00;100328.13;5094975;28;20036;-59
2023/12/22 08:19:52;;;;;;;13.70;4.32;;;;;;;7.91;100.00;100325.88;5113907;28;20032;-58
2023/12/22 08:22:17;;;;;;;12.63;5.00;;;;;;;7.84;100.00;100335.13;5111265;28;20023;-58
2023/12/22 08:24:43;;;;;;;21.33;4.53;;;;;;;7.84;100.00;100318.38;5109958;28;20023;-58
2023/12/22 08:27:08;;;;;;;19.05;4.45;;;;;;;7.85;100.00;100306.84;5095632;28;20031;-58
2023/12/22 08:29:34;;;;;;;17.50;4.35;;;;;;;7.88;100.00;100307.53;5110979;28;20018;-58
2023/12/22 08:32:00;;;;;;;22.23;4.20;;;;;;;7.91;100.00;100307.34;5092465;28;20091;-58
2023/12/22 08:34:29;;;;;;;16.75;4.60;;;;;;;7.87;100.00;100311.09;5112765;28;20043;-58
2023/12/22 08:36:54;;;;;;;15.52;3.70;;;;;;;7.90;100.00;100326.81;5110880;28;20027;-58
2023/12/22 08:39:24;;;;;;;12.73;3.78;;;;;;;7.81;100.00;100305.34;5110330;28;20042;-58
2023/12/22 08:41:49;;;;;;;17.58;4.72;;;;;;;7.88;100.00;100320.78;5109695;28;20047;-58
2023/12/22 08:44:14;;;;;;;11.98;4.35;;;;;;;7.93;100.00;100326.63;5109867;28;20082;-58
2023/12/22 08:46:40;;;;;;;10.70;4.00;;;;;;;7.99;100.00;100312.16;5111128;28;20038;-58
2023/12/22 08:49:07;;;;;;;14.77;4.93;;;;;;;7.97;100.00;100317.56;5094688;28;20476;-58
2023/12/22 08:51:33;;;;;;;13.85;4.10;;;;;;;7.98;100.00;100313.09;5111080;28;20020;-59
2023/12/22 08:53:59;;;;;;;13.32;4.85;;;;;;;7.97;100.00;100314.03;5112187;28;20729;-58
2023/12/22 08:56:25;;;;;;;9.00;3.70;;;;;;;8.03;100.00;100316.34;5120922;27;20041;-59
2023/12/22 08:58:59;;;;;;;13.35;3.85;;;;;;;7.93;100.00;100304.59;5114672;27;20453;-58
2023/12/22 09:01:25;;;;;;;10.40;3.40;;;;;;;7.90;100.00;100310.91;5117384;27;20030;-58
2023/12/22 09:03:50;;;;;;;15.75;4.13;;;;;;;7.92;100.00;100306.38;5097419;28;20039;-59
2023/12/22 09:06:17;;;;;;;13.60;3.30;;;;;;;7.90;100.00;100307.41;5114153;28;20031;-58
2023/12/22 09:08:46;;;;;;;13.55;3.42;;;;;;;7.92;100.00;100314.34;5116622;27;20445;-59
2023/12/22 09:11:14;;;;;;;11.23;3.10;;;;;;;7.93;100.00;100302.78;5115054;27;20028;-58
2023/12/22 09:13:41;;;;;;;9.25;3.22;;;;;;;7.99;100.00;100312.16;5100080;28;20065;-58
2023/12/22 09:16:09;;;;;;;7.25;2.67;;;;;;;7.91;100.00;100282.63;5101472;27;20027;-59
2023/12/22 09:18:35;;;;;;;7.00;3.10;;;;;;;8.02;100.00;100304.03;5116531;27;20040;-58
2023/12/22 09:21:02;;;;;;;10.77;2.95;;;;;;;8.03;100.00;100305.75;5110975;28;20035;-58
2023/12/22 09:23:31;;;;;;;5.38;2.35;;;;;;;8.11;100.00;100303.44;5114157;27;20440;-58
2023/12/22 09:25:59;;;;;;;10.63;3.40;;;;;;;8.02;100.00;100298.72;5109468;27;20028;-58
2023/12/22 09:28:25;;;;;;;7.00;2.95;;;;;;;8.05;100.00;100303.00;5115173;27;20285;-58
2023/12/22 09:30:50;;;;;;;4.60;2.47;;;;;;;8.06;100.00;100304.69;5095678;28;20034;-58
2023/12/22 09:33:16;;;;;;;8.95;3.10;;;;;;;8.09;100.00;100289.47;5119830;27;20016;-58
2023/12/22 09:35:42;;;;;;;7.38;2.50;;;;;;;8.13;100.00;100284.84;5095814;27;20030;-58
2023/12/22 09:38:14;;;;;;;2.72;2.50;;;;;;;8.20;100.00;100296.75;5109481;27;20023;-58
2023/12/22 09:40:41;;;;;;;8.40;2.65;;;;;;;8.24;100.00;100286.81;5116716;27;20031;-58
2023/12/22 09:43:08;;;;;;;4.20;2.60;;;;;;;8.27;100.00;100281.34;5135340;27;20031;-59
2023/12/22 09:45:33;;;;;;;5.55;2.20;;;;;;;8.28;100.00;100277.72;5116955;27;20027;-58
2023/12/22 09:48:00;;;;;;;4.32;2.33;;;;;;;8.35;100.00;100273.72;5116692;27;20026;-58
2023/12/22 09:50:27;;;;;;;9.18;2.78;;;;;;;8.35;100.00;100282.56;5134799;27;20067;-58
2023/12/22 09:52:52;;;;;;;7.22;2.47;;;;;;;8.38;100.00;100292.09;5135111;27;20027;-59
2023/12/22 09:55:21;;;;;;;5.75;2.13;;;;;;;8.40;100.00;100290.22;5116233;27;20019;-59
2023/12/22 09:57:47;;;;;;;5.35;2.45;;;;;;;8.36;100.00;100278.94;5116455;27;20015;-59
2023/12/22 10:00:15;;;;;;;6.70;2.40;;;;;;;8.43;100.00;100286.53;5116379;27;20371;-59
2023/12/22 10:02:42;;;;;;;3.78;2.25;;;;;;;8.45;100.00;100272.25;5134829;27;20436;-58
2023/12/22 10:05:09;;;;;;;5.53;2.65;;;;;;;8.50;100.00;100271.94;5116276;27;20103;-59
2023/12/22 10:07:35;;;;;;;6.53;2.60;;;;;;;8.56;100.00;100269.78;5133996;27;20023;-58
2023/12/22 10:10:02;;;;;;;6.28;1.98;;;;;;;8.57;100.00;100275.91;5115951;27;20469;-59
2023/12/22 10:12:30;;;;;;;7.75;2.40;;;;;;;8.60;100.00;100265.13;5116182;27;20035;-58
2023/12/22 10:14:56;;;;;;;6.45;2.63;;;;;;;8.69;100.00;100268.97;5134645;27;20027;-59
2023/12/22 10:17:22;;;;;;;10.52;3.00;;;;;;;8.74;100.00;100257.13;5134261;27;20019;-59
2023/12/22 10:19:48;;;;;;;5.70;2.40;;;;;;;8.77;100.00;100279.94;5115768;27;20036;-58
2023/12/22 10:22:13;;;;;;;8.00;2.60;;;;;;;8.81;100.00;100284.09;5134371;27;20042;-59
2023/12/22 10:24:50;;;;;;;7.72;2.67;;;;;;;8.83;100.00;100271.59;5134126;27;20473;-59
2023/12/22 10:27:22;;;;;;;4.40;2.35;;;;;;;8.85;100.00;100299.72;5134379;27;20031;-59
2023/12/22 10:29:49;;;;;;;4.78;2.60;;;;;;;8.86;100.00;100292.59;5134693;27;20019;-59
2023/12/22 10:32:15;;;;;;;10.48;2.88;;;;;;;8.85;100.00;100267.00;5112959;28;20033;-59
2023/12/22 10:34:40;;;;;;;8.57;2.20;;;;;;;8.85;100.00;100289.09;5113548;28;20028;-59
2023/12/22 10:37:05;;;;;;;4.85;2.55;;;;;;;8.89;100.00;100287.09;5113853;28;20496;-59
2023/12/22 10:39:32;;;;;;;8.73;2.95;;;;;;;8.90;100.00;100280.84;5112854;28;20104;-59
2023/12/22 10:42:02;;;;;;;6.60;2.33;;;;;;;8.91;100.00;100297.59;5113766;28;20023;-58
2023/12/22 10:44:28;;;;;;;3.45;2.10;;;;;;;8.93;100.00;100296.53;5094988;28;20102;-59
2023/12/22 10:46:55;;;;;;;3.65;2.00;;;;;;;8.96;100.00;100282.22;5095264;28;20028;-59
2023/12/22 10:49:21;;;;;;;8.57;2.40;;;;;;;9.00;100.00;100291.69;5094817;28;20016;-58
2023/12/22 10:51:47;;;;;;;6.05;2.47;;;;;;;8.98;100.00;100296.25;5095266;28;20115;-59
2023/12/22 10:54:12;;;;;;;6.18;2.70;;;;;;;9.00;100.00;100296.97;5112840;28;20443;-58
2023/12/22 10:56:39;;;;;;;5.57;2.92;;;;;;;9.01;100.00;100285.44;5113593;28;20064;-59
2023/12/22 10:59:06;;;;;;;4.18;2.72;;;;;;;9.02;100.00;100279.19;5094930;28;20027;-59
2023/12/22 11:01:38;;;;;;;11.52;2.72;;;;;;;9.06;100.00;100286.84;5094873;28;20103;-59
2023/12/22 11:04:09;;;;;;;3.65;2.20;;;;;;;9.09;100.00;100291.94;5094672;28;20395;-58
2023/12/22 11:06:36;;;;;;;4.28;2.25;;;;;;;9.15;100.00;100289.81;5113363;28;20371;-59
2023/12/22 11:09:08;;;;;;;7.05;2.60;;;;;;;9.18;100.00;100285.19;5112579;28;20035;-59
2023/12/22 11:11:35;;;;;;;6.85;2.72;;;;;;;9.17;100.00;100287.94;5112911;28;20031;-59
2023/12/22 11:14:04;;;;;;;5.97;2.70;;;;;;;9.16;100.00;100287.09;5094750;28;20051;-59
2023/12/22 11:16:30;;;;;;;7.75;2.78;;;;;;;9.21;100.00;100284.13;5112668;28;20058;-59
2023/12/22 11:18:59;;;;;;;9.32;3.45;;;;;;;9.22;100.00;100272.56;5094396;28;20023;-59